createdAt,value
2019-03-24T00:00:15.897Z,0
2019-03-24T00:01:14.518Z,0
2019-03-24T00:02:13.499Z,0
2019-03-24T00:03:12.239Z,0
2019-03-24T00:04:10.921Z,0
2019-03-24T00:05:09.590Z,0
2019-03-24T00:06:08.180Z,0
2019-03-24T00:07:06.846Z,0
2019-03-24T00:08:05.582Z,0
2019-03-24T00:09:04.309Z,0
2019-03-24T00:10:03.086Z,0
2019-03-24T00:11:01.837Z,0
2019-03-24T00:12:00.493Z,0
2019-03-24T00:12:59.124Z,0
2019-03-24T00:13:57.874Z,0
2019-03-24T00:14:56.502Z,0
2019-03-24T00:15:55.270Z,0
2019-03-24T00:16:54.053Z,0
2019-03-24T00:17:52.698Z,0
2019-03-24T00:18:51.460Z,0
2019-03-24T00:19:50.074Z,0
2019-03-24T00:20:48.788Z,0
2019-03-24T00:21:47.517Z,0
2019-03-24T00:22:46.166Z,0
2019-03-24T00:23:44.747Z,0
2019-03-24T00:24:43.507Z,0
2019-03-24T00:25:42.853Z,0
2019-03-24T00:26:41.517Z,0
2019-03-24T00:27:40.147Z,0
2019-03-24T00:28:38.870Z,0
2019-03-24T00:29:37.522Z,0
2019-03-24T00:30:36.235Z,0
2019-03-24T00:31:34.869Z,0
2019-03-24T00:32:33.609Z,0
2019-03-24T00:33:32.377Z,0
2019-03-24T00:34:31.042Z,0
2019-03-24T00:35:29.832Z,0
2019-03-24T00:36:28.454Z,0
2019-03-24T00:37:27.292Z,0
2019-03-24T00:38:25.943Z,0
2019-03-24T00:39:24.587Z,0
2019-03-24T00:40:23.439Z,0
2019-03-24T00:41:22.325Z,0
2019-03-24T00:42:21.044Z,0
2019-03-24T00:43:19.778Z,0
2019-03-24T00:44:18.408Z,0
2019-03-24T00:45:17.125Z,0
2019-03-24T00:46:15.876Z,0
2019-03-24T00:47:14.542Z,0
2019-03-24T00:48:13.282Z,0
2019-03-24T00:49:12.016Z,0
2019-03-24T00:50:10.614Z,0
2019-03-24T00:51:09.452Z,0
2019-03-24T00:52:08.076Z,0
2019-03-24T00:53:06.720Z,0
2019-03-24T00:54:05.702Z,0
2019-03-24T00:55:04.374Z,0
2019-03-24T00:56:02.951Z,0
2019-03-24T00:57:01.550Z,0
2019-03-24T00:58:00.203Z,0
2019-03-24T00:58:58.828Z,0
2019-03-24T00:59:57.828Z,0
2019-03-24T01:00:56.357Z,0
2019-03-24T01:01:54.932Z,0
2019-03-24T01:02:53.585Z,0
2019-03-24T01:03:52.213Z,0
2019-03-24T01:04:50.867Z,0
2019-03-24T01:05:49.773Z,0
2019-03-24T01:06:48.411Z,0
2019-03-24T01:07:47.054Z,0
2019-03-24T01:08:45.736Z,0
2019-03-24T01:09:44.357Z,0
2019-03-24T01:10:43.008Z,0
2019-03-24T01:11:41.877Z,0
2019-03-24T01:12:40.504Z,0
2019-03-24T01:13:39.240Z,0
2019-03-24T01:14:37.917Z,0
2019-03-24T01:15:47.082Z,0
2019-03-24T01:16:35.399Z,0
2019-03-24T01:17:33.935Z,0
2019-03-24T01:18:32.552Z,0
2019-03-24T01:19:31.248Z,0
2019-03-24T01:20:29.938Z,0
2019-03-24T01:21:28.627Z,0
2019-03-24T01:22:27.556Z,0
2019-03-24T01:23:26.283Z,0
2019-03-24T01:24:24.989Z,0
2019-03-24T01:25:23.732Z,0
2019-03-24T01:26:22.376Z,0
2019-03-24T01:27:21.085Z,0
2019-03-24T01:28:19.833Z,0
2019-03-24T01:29:18.453Z,0
2019-03-24T01:30:17.014Z,0
2019-03-24T01:31:15.635Z,0
2019-03-24T01:32:14.316Z,0
2019-03-24T01:33:12.967Z,0
2019-03-24T01:34:11.735Z,0
2019-03-24T01:35:10.406Z,0
2019-03-24T01:36:09.026Z,0
2019-03-24T01:37:07.657Z,0
2019-03-24T01:38:06.349Z,0
2019-03-24T01:39:04.989Z,0
2019-03-24T01:40:03.702Z,0
2019-03-24T01:41:02.480Z,0
2019-03-24T01:42:01.158Z,0
2019-03-24T01:42:59.832Z,0
2019-03-24T01:43:58.658Z,0
2019-03-24T01:44:57.565Z,0
2019-03-24T01:45:58.724Z,0
2019-03-24T01:46:54.985Z,0
2019-03-24T01:47:53.627Z,0
2019-03-24T01:48:52.265Z,0
2019-03-24T01:49:50.944Z,0
2019-03-24T01:50:49.786Z,0
2019-03-24T01:51:48.598Z,0
2019-03-24T01:52:47.233Z,0
2019-03-24T01:53:46.060Z,0
2019-03-24T01:54:44.721Z,0
2019-03-24T01:55:43.981Z,0
2019-03-24T01:56:42.650Z,0
2019-03-24T01:57:41.366Z,0
2019-03-24T01:58:39.971Z,0
2019-03-24T01:59:38.586Z,0
2019-03-24T02:00:37.273Z,0
2019-03-24T02:01:35.954Z,0
2019-03-24T02:02:34.622Z,0
2019-03-24T02:03:33.410Z,0
2019-03-24T02:04:32.067Z,0
2019-03-24T02:05:30.656Z,0
2019-03-24T02:06:29.285Z,0
2019-03-24T02:07:27.974Z,0
2019-03-24T02:08:26.632Z,0
2019-03-24T02:09:25.250Z,0
2019-03-24T02:10:23.941Z,0
2019-03-24T02:11:22.606Z,0
2019-03-24T02:12:21.321Z,0
2019-03-24T02:13:20.085Z,0
2019-03-24T02:14:18.722Z,0
2019-03-24T02:15:17.366Z,0
2019-03-24T02:16:16.144Z,0
2019-03-24T02:17:14.718Z,0
2019-03-24T02:18:13.429Z,0
2019-03-24T02:19:12.098Z,0
2019-03-24T02:20:10.755Z,0
2019-03-24T02:21:09.450Z,0
2019-03-24T02:22:08.131Z,0
2019-03-24T02:23:06.728Z,0
2019-03-24T02:24:05.482Z,0
2019-03-24T02:25:04.150Z,0
2019-03-24T02:26:02.836Z,0
2019-03-24T02:27:01.496Z,0
2019-03-24T02:28:00.236Z,0
2019-03-24T02:28:58.901Z,0
2019-03-24T02:29:57.935Z,0
2019-03-24T02:30:56.583Z,0
2019-03-24T02:31:55.317Z,0
2019-03-24T02:32:53.948Z,0
2019-03-24T02:33:52.542Z,0
2019-03-24T02:34:51.251Z,0
2019-03-24T02:35:49.934Z,0
2019-03-24T02:36:48.582Z,0
2019-03-24T02:37:47.224Z,0
2019-03-24T02:38:46.024Z,0
2019-03-24T02:39:44.599Z,0
2019-03-24T02:40:43.334Z,0
2019-03-24T02:41:41.967Z,0
2019-03-24T02:42:40.598Z,0
2019-03-24T02:43:39.211Z,0
2019-03-24T02:44:38.005Z,0
2019-03-24T02:45:36.643Z,0
2019-03-24T02:46:35.479Z,0
2019-03-24T02:47:34.137Z,0
2019-03-24T02:48:32.774Z,0
2019-03-24T02:49:31.578Z,0
2019-03-24T02:50:30.152Z,0
2019-03-24T02:51:28.790Z,0
2019-03-24T02:52:27.498Z,0
2019-03-24T02:53:26.241Z,0
2019-03-24T02:54:24.865Z,0
2019-03-24T02:55:23.714Z,0
2019-03-24T02:56:22.371Z,0
2019-03-24T02:57:21.026Z,0
2019-03-24T02:58:19.743Z,0
2019-03-24T02:59:18.291Z,0
2019-03-24T03:00:16.930Z,0
2019-03-24T03:01:15.726Z,0
2019-03-24T03:02:14.391Z,0
2019-03-24T03:03:13.052Z,0
2019-03-24T03:04:11.834Z,0
2019-03-24T03:05:10.518Z,0
2019-03-24T03:06:09.168Z,0
2019-03-24T03:07:07.880Z,0
2019-03-24T03:08:06.552Z,0
2019-03-24T03:09:05.165Z,0
2019-03-24T03:10:03.860Z,0
2019-03-24T03:11:02.512Z,0
2019-03-24T03:12:01.167Z,0
2019-03-24T03:12:59.943Z,0
2019-03-24T03:13:58.539Z,0
2019-03-24T03:14:57.267Z,0
2019-03-24T03:15:55.915Z,0
2019-03-24T03:16:54.545Z,0
2019-03-24T03:17:53.205Z,0
2019-03-24T03:18:51.981Z,0
2019-03-24T03:19:53.522Z,0
2019-03-24T03:20:49.241Z,0
2019-03-24T03:21:47.929Z,0
2019-03-24T03:22:46.575Z,0
2019-03-24T03:23:45.343Z,0
2019-03-24T03:24:44.197Z,0
2019-03-24T03:25:42.835Z,0
2019-03-24T03:26:41.537Z,0
2019-03-24T03:27:40.314Z,0
2019-03-24T03:28:38.948Z,0
2019-03-24T03:29:37.704Z,0
2019-03-24T03:30:36.324Z,0
2019-03-24T03:31:35.131Z,0
2019-03-24T03:32:33.962Z,0
2019-03-24T03:33:32.630Z,0
2019-03-24T03:34:31.273Z,0
2019-03-24T03:35:29.919Z,0
2019-03-24T03:36:28.573Z,0
2019-03-24T03:37:27.217Z,0
2019-03-24T03:38:25.944Z,0
2019-03-24T03:39:24.604Z,0
2019-03-24T03:40:23.293Z,0
2019-03-24T03:41:21.969Z,0
2019-03-24T03:42:20.648Z,0
2019-03-24T03:43:19.374Z,0
2019-03-24T03:44:18.129Z,0
2019-03-24T03:45:16.807Z,0
2019-03-24T03:46:15.449Z,0
2019-03-24T03:47:14.175Z,0
2019-03-24T03:48:12.825Z,0
2019-03-24T03:49:11.733Z,0
2019-03-24T03:50:10.470Z,0
2019-03-24T03:51:09.108Z,0
2019-03-24T03:52:07.832Z,0
2019-03-24T03:53:06.462Z,0
2019-03-24T03:54:05.124Z,0
2019-03-24T03:55:03.799Z,0
2019-03-24T03:56:02.504Z,0
2019-03-24T03:57:01.190Z,0
2019-03-24T03:57:59.939Z,0
2019-03-24T03:58:58.617Z,0
2019-03-24T03:59:57.292Z,0
2019-03-24T04:00:56.088Z,0
2019-03-24T04:01:54.730Z,0
2019-03-24T04:02:53.483Z,0
2019-03-24T04:03:52.336Z,0
2019-03-24T04:04:50.975Z,0
2019-03-24T04:05:49.727Z,0
2019-03-24T04:06:48.383Z,0
2019-03-24T04:07:47.033Z,0
2019-03-24T04:08:45.843Z,0
2019-03-24T04:09:44.497Z,0
2019-03-24T04:10:43.130Z,0
2019-03-24T04:11:41.851Z,0
2019-03-24T04:12:40.565Z,0
2019-03-24T04:13:39.232Z,0
2019-03-24T04:14:37.980Z,0
2019-03-24T04:15:36.628Z,0
2019-03-24T04:16:35.310Z,0
2019-03-24T04:17:33.999Z,0
2019-03-24T04:18:32.645Z,0
2019-03-24T04:19:31.334Z,0
2019-03-24T04:20:30.148Z,0
2019-03-24T04:21:29.153Z,0
2019-03-24T04:22:28.023Z,0
2019-03-24T04:23:26.523Z,0
2019-03-24T04:24:25.232Z,0
2019-03-24T04:25:23.871Z,0
2019-03-24T04:26:22.539Z,0
2019-03-24T04:27:21.285Z,0
2019-03-24T04:28:20.027Z,0
2019-03-24T04:29:19.379Z,0
2019-03-24T04:30:18.131Z,0
2019-03-24T04:31:16.734Z,0
2019-03-24T04:32:15.513Z,0
2019-03-24T04:33:14.157Z,0
2019-03-24T04:34:12.824Z,0
2019-03-24T04:35:11.482Z,0
2019-03-24T04:36:10.233Z,0
2019-03-24T04:37:08.858Z,0
2019-03-24T04:38:07.540Z,0
2019-03-24T04:39:06.210Z,0
2019-03-24T04:40:04.889Z,0
2019-03-24T04:41:03.806Z,0
2019-03-24T04:42:02.435Z,0
2019-03-24T04:43:01.176Z,0
2019-03-24T04:43:59.858Z,0
2019-03-24T04:44:58.451Z,0
2019-03-24T04:45:57.086Z,0
2019-03-24T04:46:55.917Z,0
2019-03-24T04:47:54.596Z,0
2019-03-24T04:48:53.349Z,0
2019-03-24T04:51:33.585Z,0
2019-03-24T04:52:32.354Z,0
2019-03-24T04:53:31.105Z,0
2019-03-24T04:54:29.829Z,0
2019-03-24T04:55:28.569Z,0
2019-03-24T04:56:27.289Z,0
2019-03-24T04:57:26.007Z,0
2019-03-24T05:01:05.143Z,0
2019-03-24T05:02:03.906Z,0
2019-03-24T05:03:02.581Z,0
2019-03-24T05:04:01.238Z,0
2019-03-24T05:05:00.050Z,0
2019-03-24T05:05:58.831Z,0
2019-03-24T05:06:57.559Z,0
2019-03-24T05:07:56.258Z,0
2019-03-24T05:08:54.913Z,0
2019-03-24T05:09:54.462Z,0
2019-03-24T05:10:52.085Z,0
2019-03-24T05:11:50.738Z,0
2019-03-24T05:12:49.451Z,0
2019-03-24T05:13:48.093Z,0
2019-03-24T05:14:46.731Z,0
2019-03-24T05:15:45.403Z,0
2019-03-24T05:16:44.031Z,0
2019-03-24T05:17:42.692Z,0
2019-03-24T05:18:41.399Z,0
2019-03-24T05:19:40.106Z,0
2019-03-24T05:20:38.844Z,5
2019-03-24T05:21:37.603Z,5
2019-03-24T05:22:36.219Z,5
2019-03-24T05:23:34.891Z,5
2019-03-24T05:24:33.576Z,5
2019-03-24T05:25:32.232Z,5
2019-03-24T05:26:30.851Z,5
2019-03-24T05:27:29.588Z,5
2019-03-24T05:28:28.198Z,10
2019-03-24T05:29:26.884Z,10
2019-03-24T05:30:25.611Z,10
2019-03-24T05:31:24.319Z,10
2019-03-24T05:32:23.775Z,10
2019-03-24T05:33:22.428Z,15
2019-03-24T05:34:21.018Z,15
2019-03-24T05:35:19.830Z,15
2019-03-24T05:36:18.500Z,15
2019-03-24T05:37:17.203Z,15
2019-03-24T05:38:16.003Z,20
2019-03-24T05:39:14.750Z,20
2019-03-24T05:40:13.458Z,20
2019-03-24T05:41:12.167Z,20
2019-03-24T05:42:10.866Z,25
2019-03-24T05:43:09.588Z,25
2019-03-24T05:44:08.272Z,25
2019-03-24T05:45:06.896Z,25
2019-03-24T05:46:05.673Z,30
2019-03-24T05:47:04.341Z,30
2019-03-24T05:48:03.016Z,30
2019-03-24T05:49:01.725Z,35
2019-03-24T05:50:00.623Z,35
2019-03-24T05:50:59.330Z,35
2019-03-24T05:51:58.017Z,40
2019-03-24T05:52:56.655Z,40
2019-03-24T05:53:55.428Z,40
2019-03-24T05:54:54.153Z,40
2019-03-24T05:55:52.808Z,40
2019-03-24T05:56:51.730Z,40
2019-03-24T05:57:50.431Z,45
2019-03-24T05:58:49.079Z,45
2019-03-24T05:59:47.696Z,45
2019-03-24T06:00:46.374Z,50
2019-03-24T06:01:45.047Z,50
2019-03-24T06:02:43.793Z,50
2019-03-24T06:03:42.480Z,55
2019-03-24T06:04:41.111Z,55
2019-03-24T06:05:39.801Z,55
2019-03-24T06:06:38.412Z,60
2019-03-24T06:07:37.055Z,60
2019-03-24T06:08:35.963Z,60
2019-03-24T06:09:34.441Z,65
2019-03-24T06:10:33.118Z,65
2019-03-24T06:11:31.778Z,65
2019-03-24T06:12:30.404Z,70
2019-03-24T06:13:29.166Z,70
2019-03-24T06:14:27.987Z,75
2019-03-24T06:15:26.643Z,75
2019-03-24T06:16:25.247Z,75
2019-03-24T06:17:23.925Z,80
2019-03-24T06:18:22.523Z,80
2019-03-24T06:19:21.285Z,85
2019-03-24T06:20:20.119Z,85
2019-03-24T06:21:18.771Z,85
2019-03-24T06:22:17.412Z,85
2019-03-24T06:23:16.090Z,85
2019-03-24T06:24:14.781Z,85
2019-03-24T06:25:13.399Z,90
2019-03-24T06:26:12.180Z,95
2019-03-24T06:27:10.917Z,95
2019-03-24T06:28:09.705Z,100
2019-03-24T06:29:08.131Z,100
2019-03-24T06:30:06.766Z,100
2019-03-24T06:31:05.427Z,105
2019-03-24T06:32:04.086Z,105
2019-03-24T06:33:02.707Z,110
2019-03-24T06:34:01.357Z,110
2019-03-24T06:35:00.126Z,110
2019-03-24T06:35:58.779Z,115
2019-03-24T06:36:57.501Z,115
2019-03-24T06:37:56.155Z,115
2019-03-24T06:38:54.784Z,115
2019-03-24T06:39:53.430Z,120
2019-03-24T06:40:52.144Z,120
2019-03-24T06:41:50.798Z,120
2019-03-24T06:42:49.435Z,120
2019-03-24T06:43:48.082Z,120
2019-03-24T06:44:46.720Z,130
2019-03-24T06:45:45.463Z,125
2019-03-24T06:46:44.268Z,125
2019-03-24T06:47:42.907Z,130
2019-03-24T06:48:41.675Z,130
2019-03-24T06:49:40.321Z,130
2019-03-24T06:50:38.963Z,135
2019-03-24T06:51:37.824Z,135
2019-03-24T06:52:36.493Z,135
2019-03-24T06:53:35.259Z,140
2019-03-24T06:54:34.069Z,140
2019-03-24T06:55:32.696Z,145
2019-03-24T06:56:31.394Z,140
2019-03-24T06:57:30.057Z,145
2019-03-24T06:58:28.643Z,145
2019-03-24T06:59:27.350Z,145
2019-03-24T07:00:26.111Z,150
2019-03-24T07:01:24.962Z,150
2019-03-24T07:04:05.560Z,150
2019-03-24T07:05:04.302Z,155
2019-03-24T07:06:02.942Z,155
2019-03-24T07:07:01.805Z,155
2019-03-24T07:08:00.527Z,155
2019-03-24T07:08:59.068Z,155
2019-03-24T07:09:57.943Z,160
2019-03-24T07:10:56.580Z,160
2019-03-24T07:11:55.132Z,160
2019-03-24T07:12:53.864Z,160
2019-03-24T07:13:52.493Z,160
2019-03-24T07:14:51.125Z,160
2019-03-24T07:15:49.832Z,160
2019-03-24T07:16:49.243Z,165
2019-03-24T07:17:48.131Z,165
2019-03-24T07:18:46.742Z,165
2019-03-24T07:19:45.475Z,160
2019-03-24T07:20:44.177Z,160
2019-03-24T07:24:06.053Z,165
2019-03-24T07:26:46.241Z,165
2019-03-24T07:27:44.881Z,165
2019-03-24T07:28:43.606Z,165
2019-03-24T07:29:42.176Z,165
2019-03-24T07:30:40.873Z,165
2019-03-24T07:31:39.995Z,165
2019-03-24T07:32:38.672Z,165
2019-03-24T07:35:18.762Z,170
2019-03-24T07:36:17.903Z,170
2019-03-24T07:37:16.553Z,170
2019-03-24T07:38:15.364Z,170
2019-03-24T07:39:14.088Z,170
2019-03-24T07:40:12.725Z,170
2019-03-24T07:42:53.285Z,165
2019-03-24T07:43:52.135Z,160
2019-03-24T07:44:50.982Z,155
2019-03-24T07:45:49.936Z,155
2019-03-24T07:46:48.657Z,160
2019-03-24T07:47:49.044Z,165
2019-03-24T07:48:46.137Z,165
2019-03-24T07:49:44.808Z,165
2019-03-24T08:03:29.017Z,170
2019-03-24T08:04:27.809Z,170
2019-03-24T08:07:25.386Z,175
2019-03-24T08:08:24.757Z,175
2019-03-24T08:12:03.929Z,170
2019-03-24T08:13:02.576Z,170
2019-03-24T08:14:01.625Z,170
2019-03-24T08:16:42.562Z,170
2019-03-24T08:17:42.942Z,170
2019-03-24T08:21:23.002Z,170
2019-03-24T08:22:21.959Z,170
2019-03-24T08:23:20.620Z,170
2019-03-24T08:32:11.420Z,170
2019-03-24T08:33:10.144Z,170
2019-03-24T08:34:08.820Z,170
2019-03-24T08:36:48.908Z,165
2019-03-24T08:37:47.652Z,170
2019-03-24T08:38:46.355Z,165
2019-03-24T08:39:45.240Z,165
2019-03-24T08:40:44.151Z,165
2019-03-24T08:43:58.853Z,165
2019-03-24T08:44:57.481Z,165
2019-03-24T08:45:56.263Z,160
2019-03-24T08:46:54.915Z,160
2019-03-24T08:47:53.694Z,160
2019-03-24T08:48:52.401Z,160
2019-03-24T08:49:51.051Z,160
2019-03-24T08:50:49.873Z,160
2019-03-24T08:51:51.106Z,160
2019-03-24T08:52:47.542Z,160
2019-03-24T08:53:46.272Z,160
2019-03-24T08:54:44.950Z,160
2019-03-24T08:55:43.745Z,165
2019-03-24T08:56:42.484Z,160
2019-03-24T08:57:41.156Z,160
2019-03-24T08:58:39.849Z,165
2019-03-24T09:01:54.389Z,160
2019-03-24T09:02:53.587Z,165
2019-03-24T09:03:52.419Z,165
2019-03-24T09:06:18.214Z,160
2019-03-24T09:07:17.864Z,160
2019-03-24T09:08:16.536Z,160
2019-03-24T09:09:15.691Z,160
2019-03-24T09:10:14.798Z,160
2019-03-24T09:11:14.853Z,160
2019-03-24T09:12:13.592Z,160
2019-03-24T09:13:12.480Z,160
2019-03-24T09:14:11.123Z,160
2019-03-24T09:15:09.904Z,160
2019-03-24T09:16:08.588Z,160
2019-03-24T09:17:07.204Z,160
2019-03-24T09:18:06.103Z,160
2019-03-24T09:19:04.699Z,160
2019-03-24T09:21:45.108Z,160
2019-03-24T09:22:44.269Z,160
2019-03-24T09:23:42.914Z,160
2019-03-24T09:24:41.580Z,160
2019-03-24T09:25:40.260Z,155
2019-03-24T09:26:39.626Z,155
2019-03-24T09:27:38.350Z,155
2019-03-24T09:28:36.948Z,155
2019-03-24T09:29:35.911Z,155
2019-03-24T09:30:34.505Z,155
2019-03-24T09:31:33.222Z,155
2019-03-24T09:42:59.913Z,150
2019-03-24T09:45:40.194Z,150
2019-03-24T09:46:39.228Z,150
2019-03-24T09:49:19.557Z,150
2019-03-24T09:50:18.570Z,150
2019-03-24T09:51:17.307Z,150
2019-03-24T09:52:16.165Z,150
2019-03-24T09:53:15.161Z,150
2019-03-24T09:55:55.597Z,150
2019-03-24T09:59:39.671Z,145
2019-03-24T10:02:19.930Z,145
2019-03-24T10:03:18.831Z,145
2019-03-24T10:04:17.527Z,145
2019-03-24T10:05:16.313Z,145
2019-03-24T10:06:15.038Z,145
2019-03-24T10:09:36.484Z,145
2019-03-24T10:10:35.142Z,145
2019-03-24T10:11:33.825Z,145
2019-03-24T10:12:32.525Z,145
2019-03-24T10:13:32.051Z,145
2019-03-24T10:14:30.728Z,145
2019-03-24T10:16:28.211Z,145
2019-03-24T10:17:26.862Z,145
2019-03-24T10:18:25.480Z,145
2019-03-24T10:19:24.111Z,145
2019-03-24T10:20:22.734Z,145
2019-03-24T10:21:21.385Z,145
2019-03-24T10:22:20.136Z,140
2019-03-24T10:23:18.783Z,140
2019-03-24T10:24:17.523Z,140
2019-03-24T10:25:16.213Z,140
2019-03-24T10:26:14.973Z,140
2019-03-24T10:27:13.656Z,140
2019-03-24T10:28:12.448Z,140
2019-03-24T10:29:11.089Z,140
2019-03-24T10:30:09.895Z,140
2019-03-24T10:31:09.153Z,140
2019-03-24T10:32:07.891Z,140
2019-03-24T10:33:06.542Z,140
2019-03-24T10:34:08.106Z,140
2019-03-24T10:35:06.755Z,140
2019-03-24T10:36:05.476Z,140
2019-03-24T10:37:04.156Z,140
2019-03-24T10:38:02.754Z,145
2019-03-24T10:39:01.427Z,140
2019-03-24T10:40:00.078Z,140
2019-03-24T10:40:59.160Z,140
2019-03-24T10:41:57.954Z,140
2019-03-24T10:45:37.011Z,140
2019-03-24T10:46:35.889Z,140
2019-03-24T10:47:34.513Z,140
2019-03-24T10:48:33.973Z,140
2019-03-24T10:49:32.091Z,140
2019-03-24T10:50:30.700Z,140
2019-03-24T10:51:30.458Z,140
2019-03-24T10:52:29.349Z,140
2019-03-24T10:53:28.107Z,135
2019-03-24T10:54:26.754Z,135
2019-03-24T10:55:25.414Z,135
2019-03-24T10:56:24.466Z,135
2019-03-24T10:57:23.141Z,135
2019-03-24T10:58:21.825Z,135
2019-03-24T10:59:20.504Z,135
2019-03-24T11:00:19.171Z,135
2019-03-24T11:01:17.855Z,135
2019-03-24T11:02:16.499Z,135
2019-03-24T11:06:12.573Z,135
2019-03-24T11:07:11.287Z,135
2019-03-24T11:08:10.099Z,135
2019-03-24T11:09:08.849Z,135
2019-03-24T11:10:07.484Z,135
2019-03-24T11:11:06.313Z,135
2019-03-24T11:12:04.981Z,135
2019-03-24T11:15:03.793Z,135
2019-03-24T11:16:02.441Z,135
2019-03-24T11:17:01.275Z,135
2019-03-24T11:18:13.341Z,135
2019-03-24T11:19:12.549Z,135
2019-03-24T11:20:11.901Z,135
2019-03-24T11:21:10.530Z,135
2019-03-24T11:22:09.205Z,135
2019-03-24T11:24:50.203Z,135
2019-03-24T11:25:48.923Z,135
2019-03-24T11:26:47.699Z,135
2019-03-24T11:27:46.395Z,135
2019-03-24T11:28:45.144Z,135
2019-03-24T11:29:43.994Z,135
2019-03-24T11:30:42.653Z,135
2019-03-24T11:31:41.318Z,135
2019-03-24T11:32:40.001Z,135
2019-03-24T11:33:38.632Z,135
2019-03-24T11:34:37.334Z,135
2019-03-24T11:35:36.423Z,135
2019-03-24T11:36:35.564Z,135
2019-03-24T11:37:35.685Z,135
2019-03-24T11:38:34.323Z,135
2019-03-24T11:39:33.557Z,135
2019-03-24T11:40:32.249Z,135
2019-03-24T11:41:31.874Z,135
2019-03-24T11:42:30.556Z,135
2019-03-24T11:44:51.283Z,135
2019-03-24T11:45:49.936Z,140
2019-03-24T11:46:48.635Z,140
2019-03-24T11:53:31.237Z,135
2019-03-24T11:54:30.935Z,135
2019-03-24T11:55:29.635Z,135
2019-03-24T11:56:28.317Z,135
2019-03-24T12:01:49.301Z,135
2019-03-24T12:02:48.284Z,135
2019-03-24T12:03:48.518Z,135
2019-03-24T12:04:47.246Z,135
2019-03-24T12:05:46.058Z,135
2019-03-24T12:06:44.732Z,135
2019-03-24T12:07:43.492Z,135
2019-03-24T12:08:42.616Z,135
2019-03-24T12:09:41.449Z,135
2019-03-24T12:13:20.890Z,135
2019-03-24T12:14:20.563Z,135
2019-03-24T12:15:19.852Z,135
2019-03-24T12:17:43.073Z,135
2019-03-24T12:18:42.813Z,135
2019-03-24T12:19:41.531Z,135
2019-03-24T12:20:40.083Z,135
2019-03-24T12:21:38.770Z,135
2019-03-24T12:22:37.421Z,135
2019-03-24T12:23:36.166Z,135
2019-03-24T12:26:02.667Z,135
2019-03-24T12:27:01.326Z,135
2019-03-24T12:28:00.113Z,135
2019-03-24T12:28:58.790Z,135
2019-03-24T12:29:57.549Z,135
2019-03-24T12:30:56.436Z,135
2019-03-24T12:31:55.059Z,135
2019-03-24T12:32:53.710Z,135
2019-03-24T12:33:52.438Z,135
2019-03-24T12:34:51.025Z,135
2019-03-24T12:35:49.742Z,135
2019-03-24T12:36:48.397Z,135
2019-03-24T12:40:27.542Z,135
2019-03-24T12:41:26.361Z,130
2019-03-24T12:42:25.008Z,135
2019-03-24T12:43:23.764Z,135
2019-03-24T12:44:22.510Z,135
2019-03-24T12:45:21.515Z,135
2019-03-24T12:46:20.130Z,135
2019-03-24T12:47:19.958Z,135
2019-03-24T12:48:18.838Z,135
2019-03-24T12:49:17.497Z,135
2019-03-24T12:50:16.205Z,135
2019-03-24T12:51:14.841Z,135
2019-03-24T12:52:13.495Z,135
2019-03-24T12:53:12.209Z,135
2019-03-24T12:54:10.808Z,135
2019-03-24T12:55:09.678Z,140
2019-03-24T12:56:08.378Z,135
2019-03-24T12:57:07.096Z,135
2019-03-24T12:58:06.063Z,135
2019-03-24T12:59:04.729Z,135
2019-03-24T13:00:03.418Z,135
2019-03-24T13:01:02.199Z,135
2019-03-24T13:02:00.862Z,135
2019-03-24T13:02:59.454Z,135
2019-03-24T13:03:58.104Z,135
2019-03-24T13:04:56.793Z,135
2019-03-24T13:05:55.353Z,135
2019-03-24T13:06:54.151Z,135
2019-03-24T13:07:52.777Z,135
2019-03-24T13:08:51.492Z,135
2019-03-24T13:09:50.307Z,135
2019-03-24T13:10:48.983Z,135
2019-03-24T13:11:47.695Z,135
2019-03-24T13:12:46.525Z,135
2019-03-24T13:13:45.578Z,135
2019-03-24T13:14:44.366Z,135
2019-03-24T13:15:43.011Z,140
2019-03-24T13:16:42.228Z,130
2019-03-24T13:17:40.961Z,130
2019-03-24T13:18:39.649Z,130
2019-03-24T13:21:19.901Z,130
2019-03-24T13:22:18.555Z,130
2019-03-24T13:23:17.203Z,130
2019-03-24T13:24:15.937Z,130
2019-03-24T13:46:23.509Z,140
2019-03-24T13:47:22.354Z,135
2019-03-24T13:48:21.047Z,135
2019-03-24T13:49:19.951Z,135
2019-03-24T13:50:18.601Z,135
2019-03-24T13:51:17.263Z,135
2019-03-24T13:52:16.328Z,140
2019-03-24T13:53:14.946Z,140
2019-03-24T13:54:13.888Z,140
2019-03-24T13:55:12.491Z,135
2019-03-24T13:57:53.689Z,140
2019-03-24T14:00:36.342Z,130
2019-03-24T14:03:18.458Z,135
2019-03-24T14:04:18.006Z,140
2019-03-24T14:05:19.363Z,140
2019-03-24T14:08:00.166Z,135
2019-03-24T14:10:40.610Z,130
2019-03-24T14:11:40.460Z,125
2019-03-24T14:25:12.910Z,140
2019-03-24T14:31:45.056Z,145
2019-03-24T14:32:44.571Z,145
2019-03-24T14:35:08.173Z,135
2019-03-24T14:37:43.953Z,125
2019-03-24T14:38:42.743Z,120
2019-03-24T14:46:44.549Z,115
2019-03-24T14:49:07.960Z,105
2019-03-24T14:51:48.144Z,100
2019-03-24T14:52:46.809Z,100
2019-03-24T14:53:45.466Z,105
2019-03-24T14:56:42.091Z,100
2019-03-24T15:02:40.840Z,110
2019-03-24T15:03:38.162Z,115
2019-03-24T15:04:36.972Z,115
2019-03-24T15:07:17.126Z,120
2019-03-24T15:08:16.056Z,125
2019-03-24T15:09:15.159Z,120
2019-03-24T15:10:14.956Z,120
2019-03-24T15:12:55.237Z,105
2019-03-24T15:13:54.788Z,95
2019-03-24T15:14:53.607Z,95
2019-03-24T15:17:36.796Z,100
2019-03-24T15:18:36.431Z,100
2019-03-24T15:19:36.143Z,100
2019-03-24T15:20:35.039Z,100
2019-03-24T15:23:15.471Z,100
2019-03-24T15:28:36.534Z,85
2019-03-24T15:32:13.390Z,90
2019-03-24T15:33:14.521Z,90
2019-03-24T15:35:56.613Z,90
2019-03-24T15:36:55.304Z,85
2019-03-24T15:38:06.848Z,85
2019-03-24T15:44:20.690Z,80
2019-03-24T15:45:19.507Z,75
2019-03-24T15:48:00.217Z,75
2019-03-24T15:50:40.794Z,70
2019-03-24T15:53:21.213Z,70
2019-03-24T15:54:20.130Z,70
2019-03-24T15:57:10.772Z,70
2019-03-24T15:59:51.063Z,70
2019-03-24T16:00:49.948Z,70
2019-03-24T16:01:49.002Z,65
2019-03-24T16:02:47.836Z,65
2019-03-24T16:05:28.335Z,65
2019-03-24T16:06:27.145Z,65
2019-03-24T16:22:41.329Z,50
2019-03-24T16:23:40.029Z,50
2019-03-24T16:24:39.800Z,45
2019-03-24T16:27:27.363Z,40
2019-03-24T16:30:07.705Z,40
2019-03-24T16:35:38.392Z,45
2019-03-24T16:36:37.789Z,45
2019-03-24T16:37:37.328Z,45
2019-03-24T16:38:48.462Z,45
2019-03-24T16:41:16.840Z,45
2019-03-24T16:42:15.484Z,45
2019-03-24T16:44:21.237Z,40
2019-03-24T16:47:20.998Z,35
2019-03-24T16:48:21.787Z,30
2019-03-24T17:00:28.601Z,15
2019-03-24T17:01:31.209Z,15
2019-03-24T17:03:59.766Z,10
2019-03-24T17:05:04.852Z,10
2019-03-24T17:06:17.031Z,10
2019-03-24T17:38:48.980Z,0
2019-03-24T17:39:51.059Z,0
2019-03-24T17:40:49.704Z,0
2019-03-24T17:43:29.975Z,0
2019-03-24T17:44:28.705Z,0
2019-03-24T17:45:27.397Z,0
2019-03-24T17:46:26.303Z,0
2019-03-24T17:47:25.258Z,0
2019-03-24T17:48:23.991Z,0
2019-03-24T17:49:23.112Z,0
2019-03-24T17:50:21.925Z,0
2019-03-24T17:51:20.686Z,0
2019-03-24T17:52:19.359Z,0
2019-03-24T17:53:18.109Z,0
2019-03-24T17:54:16.856Z,0
2019-03-24T17:55:15.490Z,0
2019-03-24T17:59:06.403Z,0
2019-03-24T18:01:23.816Z,0
2019-03-24T18:02:24.062Z,0
2019-03-24T18:03:31.798Z,0
2019-03-24T18:14:07.780Z,0
2019-03-24T18:16:02.329Z,0
2019-03-24T18:17:01.002Z,0
2019-03-24T18:17:59.997Z,0
2019-03-24T18:18:59.667Z,0
2019-03-24T18:19:57.633Z,0
2019-03-24T18:20:56.635Z,0
2019-03-24T18:21:55.334Z,0
2019-03-24T18:25:37.092Z,0
2019-03-24T18:29:11.215Z,0
2019-03-24T18:30:10.098Z,0
2019-03-24T18:32:52.150Z,0
2019-03-24T18:35:10.826Z,0
2019-03-24T18:37:15.219Z,0
2019-03-24T18:38:16.474Z,0
2019-03-24T18:39:16.320Z,0
2019-03-24T18:41:57.212Z,0
2019-03-24T18:43:40.901Z,0
2019-03-24T18:44:40.946Z,0
2019-03-24T18:46:10.198Z,0
2019-03-24T18:49:12.414Z,0
2019-03-24T18:50:22.376Z,0
2019-03-24T18:55:31.309Z,0
2019-03-24T18:56:29.312Z,0
2019-03-24T19:00:19.578Z,0
2019-03-24T19:23:41.977Z,0
2019-03-24T19:24:40.770Z,0
2019-03-24T19:25:40.150Z,0
2019-03-24T19:26:42.759Z,0
2019-03-24T19:32:42.532Z,0
2019-03-24T19:33:41.114Z,0
2019-03-24T19:47:09.009Z,0
2019-03-24T19:48:20.763Z,0
2019-03-24T19:58:26.791Z,0
2019-03-24T20:02:30.712Z,0
2019-03-24T20:07:22.363Z,0
2019-03-24T20:10:45.046Z,0
2019-03-24T20:12:09.466Z,0
2019-03-24T20:14:32.745Z,0
2019-03-24T20:16:11.606Z,0
2019-03-24T20:20:20.783Z,0